GOOYOMDB

Guest
Details From GOOY - Dakar Leopold Sedar Senghor Intl
To OMDB - Dubai Intl
Flight Number -
Tags Generated
Created
Modified
Stats Distance 4,116 nm / 7,623 km
Max Altitude 0 ft / 0 m
Waypoints 7
Social Downloads 0
Likes 0
Share VATSIM

Download

Looking for another format? Having issues loading an existing format? Contact us
Advertisement - Login to hide

Notes

Generated

Route

GOOY BELAL GAS22 AVOBO ELOSA NOMRU OMDB

ID Type Via Altitude Latitude Longitude Leg Dist Tot Dist Heading (true) Name
O GOOY APT - 0 ft / 0 m 14.73171˚ -17.50427˚ - 0 nm - -
BELAL FIX - 0 ft / 0 m 25.77472˚ 39.42306˚ 3251 nm 3251 nm 69° / 90° -
GAS22 FIX - 0 ft / 0 m 26.11445˚ 43.59009˚ 225 nm 3477 nm 84° / 86° -
AVOBO FIX - 0 ft / 0 m 26.05944˚ 47.12194˚ 190 nm 3667 nm 90° / 92° -
ELOSA FIX - 0 ft / 0 m 25.81389˚ 51.70917˚ 248 nm 3916 nm 92° / 94° -
NOMRU FIX - 0 ft / 0 m 25.30694˚ 55.10778˚ 186 nm 4102 nm 99° / 100° -
O OMDB APT - 0 ft / 0 m 25.26213˚ 55.34757˚ 13 nm 4115 nm 102° / 102° -

Altitude Profile

Advertisement - Login to hide

Weather


0- 5 10 15 20 25 30 35+ Temperature / ° C

Clouds and Precipitation
Forecast for 2017-12-13 18:00 UTC. Updated 20 minutes ago

Ground ~20,000 ft ~40,000 ft Winds

GOOY

Details ICAO GOOY (DKR)
Name Dakar Leopold Sedar Senghor Intl
Region Senegal
Timezone Africa/Dakar (UTC+0.0)
Stats Elevation 85 ft / 26 m (AMSL)
Location 14.739711° -17.490226°
Runways 2
Magnetic Variation 7.348° W

METAR

GOOY 131700Z 02016KT CAVOK 24/16 Q1013

Decode

TAF

TAF GOOY 131130Z 1312/1418 02014KT CAVOK= TAF GBYD 131130Z 1312/1418 03007KT CAVOK

Decode

Departure Runways

ID Width Length Bearing (true) Bearing (mag) Surface Threshold Offset Overrun Length
03 98 ft / 30 m 4,921 ft / 1,500 m 22.31° 29.66° Asphalt 0 ft / 0 m 98 ft / 30 m
18 148 ft / 45 m 11,511 ft / 3,509 m 172.57° 179.92° Asphalt 525 ft / 160 m 197 ft / 60 m
21 98 ft / 30 m 4,921 ft / 1,500 m 202.31° 209.66° Asphalt 0 ft / 0 m 1,590 ft / 485 m
36 148 ft / 45 m 11,511 ft / 3,509 m 352.57° 359.92° Asphalt 0 ft / 0 m 197 ft / 60 m

OMDB

Details ICAO OMDB (DXB)
Name DUBAI INTL
Region United Arab Emirates
Timezone Asia/Dubai (UTC+4.0)
Stats Elevation 62 ft / 19 m (AMSL)
Location 25.254912° 55.364260°
Runways 2
Magnetic Variation 2.047° E

METAR

OMDB 131700Z 06008G18KT 010V080 CAVOK 22/06 Q1018 NOSIG

Decode

TAF

TAF OMDB 131056Z 1312/1418 36014KT 8000 NSC BECMG 1314/1316 07008KT BECMG 1409/1411 34013KT BECMG 1414/1416 09008KT

Decode

Destination Runways

ID Width Length Bearing (true) Bearing (mag) Surface Threshold Offset Overrun Length
12L 197 ft / 60 m 13,124 ft / 4,000 m 121.49° 119.44° Asphalt 1,312 ft / 400 m 395 ft / 120 m
12R 151 ft / 46 m 13,139 ft / 4,005 m 121.48° 119.43° Asphalt 394 ft / 120 m 197 ft / 60 m
30L 151 ft / 46 m 13,139 ft / 4,005 m 301.50° 299.45° Asphalt 2,953 ft / 900 m 197 ft / 60 m
30R 197 ft / 60 m 13,124 ft / 4,000 m 301.51° 299.46° Asphalt 0 ft / 0 m 395 ft / 120 m

Approach Navaids

Runway Type Ident Frequency Range Bearing (true) Bearing (mag) Slope Elevation
12L Localiser IDBL 110.10 MHz 18 nm / 33 km 121.49° 119.44° - 62 ft / 19 m (AMSL)
12L Glidescope IDBL 110.10 MHz 10 nm / 19 km 121.50° 119.45° 3.00° 62 ft / 19 m (AMSL)
12L DME IDBL 110.10 MHz 18 nm / 33 km - - - 62 ft / 19 m (AMSL)
12R Localiser IDBE 110.90 MHz 18 nm / 33 km 121.55° 119.50° - 34 ft / 10 m (AMSL)
12R Glidescope IDBE 110.90 MHz 10 nm / 19 km 121.49° 119.45° 3.00° 34 ft / 10 m (AMSL)
30L Localiser IDBW 111.30 MHz 18 nm / 33 km 301.46° 299.42° - 34 ft / 10 m (AMSL)
30L Glidescope IDBW 111.30 MHz 10 nm / 19 km 301.49° 299.45° 3.00° 34 ft / 10 m (AMSL)
30L DME IDBW 111.30 MHz 18 nm / 33 km - - - 41 ft / 12 m (AMSL)
30R Localiser IDBR 110.90 MHz 18 nm / 33 km 301.50° 299.45° - 62 ft / 19 m (AMSL)
30R Glidescope IDBR 110.90 MHz 10 nm / 19 km 301.50° 299.45° 3.00° 44 ft / 13 m (AMSL)
30R DME IDBR 110.90 MHz 18 nm / 33 km - - - 44 ft / 13 m (AMSL)

Popular Alternatives